sensor_id;sensor_type;location;lat;lon;timestamp;P1;durP1;ratioP1;P2;durP2;ratioP2
13475;SDS011;6810;63.824;20.288;2023-08-01T00:00:48;3.50;;;2.30;;
13475;SDS011;6810;63.824;20.288;2023-08-01T00:03:35;2.50;;;2.17;;
13475;SDS011;6810;63.824;20.288;2023-08-01T00:06:23;3.90;;;2.30;;
13475;SDS011;6810;63.824;20.288;2023-08-01T00:09:10;3.50;;;2.23;;
13475;SDS011;6810;63.824;20.288;2023-08-01T00:11:57;3.47;;;2.57;;
13475;SDS011;6810;63.824;20.288;2023-08-01T00:14:44;3.57;;;2.40;;
13475;SDS011;6810;63.824;20.288;2023-08-01T00:17:31;2.97;;;2.70;;
13475;SDS011;6810;63.824;20.288;2023-08-01T00:20:18;5.93;;;2.63;;
13475;SDS011;6810;63.824;20.288;2023-08-01T00:23:06;3.83;;;2.53;;
13475;SDS011;6810;63.824;20.288;2023-08-01T00:25:52;3.13;;;2.90;;
13475;SDS011;6810;63.824;20.288;2023-08-01T00:28:40;4.53;;;2.80;;
13475;SDS011;6810;63.824;20.288;2023-08-01T00:31:27;5.73;;;3.00;;
13475;SDS011;6810;63.824;20.288;2023-08-01T00:34:15;2.90;;;2.70;;
13475;SDS011;6810;63.824;20.288;2023-08-01T00:37:02;3.67;;;2.83;;
13475;SDS011;6810;63.824;20.288;2023-08-01T00:39:50;3.77;;;3.10;;
13475;SDS011;6810;63.824;20.288;2023-08-01T00:42:37;6.30;;;3.20;;
13475;SDS011;6810;63.824;20.288;2023-08-01T00:45:27;4.17;;;3.10;;
13475;SDS011;6810;63.824;20.288;2023-08-01T00:48:16;4.67;;;3.20;;
13475;SDS011;6810;63.824;20.288;2023-08-01T00:51:04;5.70;;;3.20;;
13475;SDS011;6810;63.824;20.288;2023-08-01T00:53:53;3.70;;;3.30;;
13475;SDS011;6810;63.824;20.288;2023-08-01T00:56:40;4.00;;;3.23;;
13475;SDS011;6810;63.824;20.288;2023-08-01T00:59:27;3.30;;;3.00;;
13475;SDS011;6810;63.824;20.288;2023-08-01T01:02:14;3.70;;;3.23;;
13475;SDS011;6810;63.824;20.288;2023-08-01T01:05:02;5.20;;;3.23;;
13475;SDS011;6810;63.824;20.288;2023-08-01T01:07:49;4.50;;;3.40;;
13475;SDS011;6810;63.824;20.288;2023-08-01T01:10:36;4.83;;;3.60;;
13475;SDS011;6810;63.824;20.288;2023-08-01T01:13:23;3.80;;;3.50;;
13475;SDS011;6810;63.824;20.288;2023-08-01T01:16:10;3.90;;;3.30;;
13475;SDS011;6810;63.824;20.288;2023-08-01T01:18:59;3.97;;;3.57;;
13475;SDS011;6810;63.824;20.288;2023-08-01T01:21:46;4.10;;;3.70;;
13475;SDS011;6810;63.824;20.288;2023-08-01T01:24:49;5.37;;;3.77;;
13475;SDS011;6810;63.824;20.288;2023-08-01T01:27:38;3.83;;;3.50;;
13475;SDS011;6810;63.824;20.288;2023-08-01T01:30:26;4.40;;;4.00;;
13475;SDS011;6810;63.824;20.288;2023-08-01T01:33:15;4.00;;;3.60;;
13475;SDS011;6810;63.824;20.288;2023-08-01T01:36:03;5.37;;;4.10;;
13475;SDS011;6810;63.824;20.288;2023-08-01T01:38:50;4.37;;;3.97;;
13475;SDS011;6810;63.824;20.288;2023-08-01T01:41:37;4.53;;;4.13;;
13475;SDS011;6810;63.824;20.288;2023-08-01T01:44:24;4.80;;;3.80;;
13475;SDS011;6810;63.824;20.288;2023-08-01T01:47:11;5.13;;;4.23;;
13475;SDS011;6810;63.824;20.288;2023-08-01T01:49:59;5.37;;;4.03;;
13475;SDS011;6810;63.824;20.288;2023-08-01T01:52:46;4.53;;;4.10;;
13475;SDS011;6810;63.824;20.288;2023-08-01T01:55:33;6.07;;;4.10;;
13475;SDS011;6810;63.824;20.288;2023-08-01T01:58:20;5.87;;;4.40;;
13475;SDS011;6810;63.824;20.288;2023-08-01T02:01:07;4.80;;;4.30;;
13475;SDS011;6810;63.824;20.288;2023-08-01T02:03:54;4.13;;;3.73;;
13475;SDS011;6810;63.824;20.288;2023-08-01T02:06:41;4.57;;;4.17;;
13475;SDS011;6810;63.824;20.288;2023-08-01T02:09:29;4.77;;;4.37;;
13475;SDS011;6810;63.824;20.288;2023-08-01T02:12:16;4.97;;;4.17;;
13475;SDS011;6810;63.824;20.288;2023-08-01T02:15:04;4.53;;;4.10;;
13475;SDS011;6810;63.824;20.288;2023-08-01T02:17:52;5.37;;;4.90;;
13475;SDS011;6810;63.824;20.288;2023-08-01T02:20:59;6.67;;;4.50;;
13475;SDS011;6810;63.824;20.288;2023-08-01T02:23:46;4.97;;;4.57;;
13475;SDS011;6810;63.824;20.288;2023-08-01T02:26:33;4.43;;;4.03;;
13475;SDS011;6810;63.824;20.288;2023-08-01T02:29:20;4.80;;;4.40;;
13475;SDS011;6810;63.824;20.288;2023-08-01T02:32:07;4.67;;;4.27;;
13475;SDS011;6810;63.824;20.288;2023-08-01T02:34:57;4.37;;;3.97;;
13475;SDS011;6810;63.824;20.288;2023-08-01T02:37:44;4.60;;;4.20;;
13475;SDS011;6810;63.824;20.288;2023-08-01T02:40:32;6.10;;;4.50;;
13475;SDS011;6810;63.824;20.288;2023-08-01T02:43:19;4.53;;;4.13;;
13475;SDS011;6810;63.824;20.288;2023-08-01T02:46:06;4.03;;;3.60;;
13475;SDS011;6810;63.824;20.288;2023-08-01T02:48:53;4.37;;;3.97;;
13475;SDS011;6810;63.824;20.288;2023-08-01T02:51:41;4.80;;;4.40;;
13475;SDS011;6810;63.824;20.288;2023-08-01T02:54:28;4.50;;;4.10;;
13475;SDS011;6810;63.824;20.288;2023-08-01T02:57:15;4.63;;;4.23;;
13475;SDS011;6810;63.824;20.288;2023-08-01T03:00:02;4.13;;;3.83;;
13475;SDS011;6810;63.824;20.288;2023-08-01T03:02:50;4.43;;;4.03;;
13475;SDS011;6810;63.824;20.288;2023-08-01T03:05:37;5.70;;;3.97;;
13475;SDS011;6810;63.824;20.288;2023-08-01T03:08:24;5.37;;;3.70;;
13475;SDS011;6810;63.824;20.288;2023-08-01T03:11:11;4.50;;;4.07;;
13475;SDS011;6810;63.824;20.288;2023-08-01T03:13:59;5.47;;;4.00;;
13475;SDS011;6810;63.824;20.288;2023-08-01T03:16:46;4.40;;;4.03;;
13475;SDS011;6810;63.824;20.288;2023-08-01T03:19:33;4.57;;;3.90;;
13475;SDS011;6810;63.824;20.288;2023-08-01T03:22:20;4.30;;;3.90;;
13475;SDS011;6810;63.824;20.288;2023-08-01T03:25:07;4.57;;;4.17;;
13475;SDS011;6810;63.824;20.288;2023-08-01T03:27:56;4.50;;;4.10;;
13475;SDS011;6810;63.824;20.288;2023-08-01T03:30:43;4.03;;;3.70;;
13475;SDS011;6810;63.824;20.288;2023-08-01T03:33:30;3.47;;;3.17;;
13475;SDS011;6810;63.824;20.288;2023-08-01T03:36:19;5.27;;;3.23;;
13475;SDS011;6810;63.824;20.288;2023-08-01T03:39:07;5.73;;;3.50;;
13475;SDS011;6810;63.824;20.288;2023-08-01T03:41:54;3.70;;;2.90;;
13475;SDS011;6810;63.824;20.288;2023-08-01T03:44:41;3.53;;;3.23;;
13475;SDS011;6810;63.824;20.288;2023-08-01T03:47:29;3.33;;;2.90;;
13475;SDS011;6810;63.824;20.288;2023-08-01T03:50:16;2.83;;;2.63;;
13475;SDS011;6810;63.824;20.288;2023-08-01T03:53:03;3.80;;;2.97;;
13475;SDS011;6810;63.824;20.288;2023-08-01T03:55:50;3.67;;;3.00;;
13475;SDS011;6810;63.824;20.288;2023-08-01T03:58:37;4.03;;;2.97;;
13475;SDS011;6810;63.824;20.288;2023-08-01T04:01:24;3.63;;;2.77;;
13475;SDS011;6810;63.824;20.288;2023-08-01T04:04:12;3.20;;;2.90;;
13475;SDS011;6810;63.824;20.288;2023-08-01T04:06:59;5.30;;;2.93;;
13475;SDS011;6810;63.824;20.288;2023-08-01T04:09:46;3.03;;;2.70;;
13475;SDS011;6810;63.824;20.288;2023-08-01T04:12:33;2.97;;;2.50;;
13475;SDS011;6810;63.824;20.288;2023-08-01T04:15:21;2.67;;;2.47;;
13475;SDS011;6810;63.824;20.288;2023-08-01T04:18:08;2.80;;;2.60;;
13475;SDS011;6810;63.824;20.288;2023-08-01T04:20:55;2.87;;;2.57;;
13475;SDS011;6810;63.824;20.288;2023-08-01T04:23:42;2.33;;;2.13;;
13475;SDS011;6810;63.824;20.288;2023-08-01T04:26:29;2.70;;;2.33;;
13475;SDS011;6810;63.824;20.288;2023-08-01T04:29:16;2.80;;;2.50;;
13475;SDS011;6810;63.824;20.288;2023-08-01T04:32:04;3.07;;;2.50;;
13475;SDS011;6810;63.824;20.288;2023-08-01T04:34:51;4.17;;;2.20;;
13475;SDS011;6810;63.824;20.288;2023-08-01T04:37:38;2.73;;;2.30;;
13475;SDS011;6810;63.824;20.288;2023-08-01T04:40:25;4.53;;;2.70;;
13475;SDS011;6810;63.824;20.288;2023-08-01T04:43:13;2.50;;;2.30;;
13475;SDS011;6810;63.824;20.288;2023-08-01T04:46:00;2.83;;;2.43;;
13475;SDS011;6810;63.824;20.288;2023-08-01T04:48:47;3.70;;;2.70;;
13475;SDS011;6810;63.824;20.288;2023-08-01T04:51:34;2.73;;;2.43;;
13475;SDS011;6810;63.824;20.288;2023-08-01T04:54:21;3.10;;;2.53;;
13475;SDS011;6810;63.824;20.288;2023-08-01T04:57:08;2.50;;;2.30;;
13475;SDS011;6810;63.824;20.288;2023-08-01T04:59:55;3.73;;;2.60;;
13475;SDS011;6810;63.824;20.288;2023-08-01T05:02:42;2.50;;;2.30;;
13475;SDS011;6810;63.824;20.288;2023-08-01T05:05:29;3.03;;;2.53;;
13475;SDS011;6810;63.824;20.288;2023-08-01T05:08:16;3.33;;;2.50;;
13475;SDS011;6810;63.824;20.288;2023-08-01T05:11:04;3.83;;;2.33;;
13475;SDS011;6810;63.824;20.288;2023-08-01T05:13:51;2.77;;;2.37;;
13475;SDS011;6810;63.824;20.288;2023-08-01T05:16:38;2.50;;;2.27;;
13475;SDS011;6810;63.824;20.288;2023-08-01T05:19:25;2.63;;;2.43;;
13475;SDS011;6810;63.824;20.288;2023-08-01T05:22:12;3.70;;;2.47;;
13475;SDS011;6810;63.824;20.288;2023-08-01T05:24:59;6.73;;;3.50;;
13475;SDS011;6810;63.824;20.288;2023-08-01T05:27:46;3.40;;;2.50;;
13475;SDS011;6810;63.824;20.288;2023-08-01T05:30:33;2.50;;;2.30;;
13475;SDS011;6810;63.824;20.288;2023-08-01T05:33:20;3.13;;;2.50;;
13475;SDS011;6810;63.824;20.288;2023-08-01T05:36:07;3.83;;;2.73;;
13475;SDS011;6810;63.824;20.288;2023-08-01T05:38:56;5.37;;;2.50;;
13475;SDS011;6810;63.824;20.288;2023-08-01T05:41:43;6.20;;;2.50;;
13475;SDS011;6810;63.824;20.288;2023-08-01T05:44:30;4.07;;;2.47;;
13475;SDS011;6810;63.824;20.288;2023-08-01T05:47:18;2.30;;;2.10;;
13475;SDS011;6810;63.824;20.288;2023-08-01T05:50:05;4.00;;;2.43;;
13475;SDS011;6810;63.824;20.288;2023-08-01T05:52:53;3.33;;;2.60;;
13475;SDS011;6810;63.824;20.288;2023-08-01T05:55:40;2.97;;;2.17;;
13475;SDS011;6810;63.824;20.288;2023-08-01T05:58:27;4.50;;;2.13;;
13475;SDS011;6810;63.824;20.288;2023-08-01T06:01:14;3.00;;;2.10;;
13475;SDS011;6810;63.824;20.288;2023-08-01T06:03:41;2.97;;;1.90;;
13475;SDS011;6810;63.824;20.288;2023-08-01T06:06:09;2.50;;;2.03;;
13475;SDS011;6810;63.824;20.288;2023-08-01T06:08:36;3.10;;;2.20;;
13475;SDS011;6810;63.824;20.288;2023-08-01T06:11:03;2.33;;;2.10;;
13475;SDS011;6810;63.824;20.288;2023-08-01T06:13:30;4.10;;;2.33;;
13475;SDS011;6810;63.824;20.288;2023-08-01T06:15:57;4.40;;;2.23;;
13475;SDS011;6810;63.824;20.288;2023-08-01T06:18:24;4.97;;;2.50;;
13475;SDS011;6810;63.824;20.288;2023-08-01T06:20:51;2.23;;;2.03;;
13475;SDS011;6810;63.824;20.288;2023-08-01T06:23:19;4.13;;;2.00;;
13475;SDS011;6810;63.824;20.288;2023-08-01T06:25:46;3.03;;;1.93;;
13475;SDS011;6810;63.824;20.288;2023-08-01T06:28:13;4.30;;;2.53;;
13475;SDS011;6810;63.824;20.288;2023-08-01T06:30:40;2.30;;;2.10;;
13475;SDS011;6810;63.824;20.288;2023-08-01T06:33:07;3.30;;;2.60;;
13475;SDS011;6810;63.824;20.288;2023-08-01T06:35:34;2.40;;;1.90;;
13475;SDS011;6810;63.824;20.288;2023-08-01T06:38:01;4.43;;;2.43;;
13475;SDS011;6810;63.824;20.288;2023-08-01T06:40:28;2.47;;;2.13;;
13475;SDS011;6810;63.824;20.288;2023-08-01T06:42:55;4.07;;;2.20;;
13475;SDS011;6810;63.824;20.288;2023-08-01T06:45:22;2.30;;;2.10;;
13475;SDS011;6810;63.824;20.288;2023-08-01T06:47:49;2.97;;;1.87;;
13475;SDS011;6810;63.824;20.288;2023-08-01T06:50:17;2.63;;;2.13;;
13475;SDS011;6810;63.824;20.288;2023-08-01T06:52:44;4.67;;;2.20;;
13475;SDS011;6810;63.824;20.288;2023-08-01T06:55:11;1.83;;;1.73;;
13475;SDS011;6810;63.824;20.288;2023-08-01T06:57:38;1.70;;;1.60;;
13475;SDS011;6810;63.824;20.288;2023-08-01T07:00:05;2.57;;;1.50;;
13475;SDS011;6810;63.824;20.288;2023-08-01T07:02:33;2.30;;;1.70;;
13475;SDS011;6810;63.824;20.288;2023-08-01T07:05:00;2.50;;;1.87;;
13475;SDS011;6810;63.824;20.288;2023-08-01T07:07:27;2.87;;;2.03;;
13475;SDS011;6810;63.824;20.288;2023-08-01T07:09:54;2.33;;;1.80;;
13475;SDS011;6810;63.824;20.288;2023-08-01T07:12:21;2.50;;;1.90;;
13475;SDS011;6810;63.824;20.288;2023-08-01T07:14:49;2.50;;;1.73;;
13475;SDS011;6810;63.824;20.288;2023-08-01T07:17:16;2.03;;;1.57;;
13475;SDS011;6810;63.824;20.288;2023-08-01T07:19:43;2.80;;;2.00;;
13475;SDS011;6810;63.824;20.288;2023-08-01T07:22:10;2.67;;;2.10;;
13475;SDS011;6810;63.824;20.288;2023-08-01T07:24:37;3.87;;;2.17;;
13475;SDS011;6810;63.824;20.288;2023-08-01T07:27:04;2.60;;;2.03;;
13475;SDS011;6810;63.824;20.288;2023-08-01T07:29:31;4.37;;;2.20;;
13475;SDS011;6810;63.824;20.288;2023-08-01T07:31:59;2.10;;;1.87;;
13475;SDS011;6810;63.824;20.288;2023-08-01T07:34:26;2.17;;;1.80;;
13475;SDS011;6810;63.824;20.288;2023-08-01T07:36:53;2.00;;;1.80;;
13475;SDS011;6810;63.824;20.288;2023-08-01T07:39:20;2.10;;;1.70;;
13475;SDS011;6810;63.824;20.288;2023-08-01T07:41:47;2.87;;;1.80;;
13475;SDS011;6810;63.824;20.288;2023-08-01T07:44:14;3.00;;;1.77;;
13475;SDS011;6810;63.824;20.288;2023-08-01T07:46:41;1.93;;;1.73;;
13475;SDS011;6810;63.824;20.288;2023-08-01T07:49:08;1.80;;;1.50;;
13475;SDS011;6810;63.824;20.288;2023-08-01T07:51:36;2.17;;;1.80;;
13475;SDS011;6810;63.824;20.288;2023-08-01T07:54:03;2.47;;;1.80;;
13475;SDS011;6810;63.824;20.288;2023-08-01T07:56:30;3.37;;;1.90;;
13475;SDS011;6810;63.824;20.288;2023-08-01T07:58:57;2.07;;;1.87;;
13475;SDS011;6810;63.824;20.288;2023-08-01T08:01:24;2.73;;;1.80;;
13475;SDS011;6810;63.824;20.288;2023-08-01T08:03:52;1.67;;;1.57;;
13475;SDS011;6810;63.824;20.288;2023-08-01T08:06:19;2.30;;;2.10;;
13475;SDS011;6810;63.824;20.288;2023-08-01T08:08:48;2.30;;;1.77;;
13475;SDS011;6810;63.824;20.288;2023-08-01T08:11:15;2.10;;;1.80;;
13475;SDS011;6810;63.824;20.288;2023-08-01T08:13:42;4.20;;;1.97;;
13475;SDS011;6810;63.824;20.288;2023-08-01T08:16:09;1.97;;;1.60;;
13475;SDS011;6810;63.824;20.288;2023-08-01T08:18:36;3.27;;;1.77;;
13475;SDS011;6810;63.824;20.288;2023-08-01T08:21:04;2.47;;;2.03;;
13475;SDS011;6810;63.824;20.288;2023-08-01T08:23:31;4.90;;;2.03;;
13475;SDS011;6810;63.824;20.288;2023-08-01T08:25:58;2.10;;;1.83;;
13475;SDS011;6810;63.824;20.288;2023-08-01T08:28:29;4.03;;;1.93;;
13475;SDS011;6810;63.824;20.288;2023-08-01T08:30:58;2.20;;;2.00;;
13475;SDS011;6810;63.824;20.288;2023-08-01T08:33:25;2.30;;;1.67;;
13475;SDS011;6810;63.824;20.288;2023-08-01T08:35:53;3.10;;;1.80;;
13475;SDS011;6810;63.824;20.288;2023-08-01T08:38:20;3.30;;;1.67;;
13475;SDS011;6810;63.824;20.288;2023-08-01T08:43:27;2.17;;;1.97;;
13475;SDS011;6810;63.824;20.288;2023-08-01T08:45:55;2.40;;;1.70;;
13475;SDS011;6810;63.824;20.288;2023-08-01T08:48:23;2.93;;;1.77;;
13475;SDS011;6810;63.824;20.288;2023-08-01T08:50:52;2.43;;;1.90;;
13475;SDS011;6810;63.824;20.288;2023-08-01T08:53:20;3.77;;;2.13;;
13475;SDS011;6810;63.824;20.288;2023-08-01T08:55:48;3.20;;;2.00;;
13475;SDS011;6810;63.824;20.288;2023-08-01T08:58:16;2.40;;;1.73;;
13475;SDS011;6810;63.824;20.288;2023-08-01T09:00:43;3.27;;;2.13;;
13475;SDS011;6810;63.824;20.288;2023-08-01T09:03:11;2.97;;;2.10;;
13475;SDS011;6810;63.824;20.288;2023-08-01T09:05:48;3.40;;;1.90;;
13475;SDS011;6810;63.824;20.288;2023-08-01T09:08:20;3.43;;;2.10;;
13475;SDS011;6810;63.824;20.288;2023-08-01T09:10:48;3.40;;;2.10;;
13475;SDS011;6810;63.824;20.288;2023-08-01T09:13:15;2.57;;;1.80;;
13475;SDS011;6810;63.824;20.288;2023-08-01T09:15:42;3.77;;;1.73;;
13475;SDS011;6810;63.824;20.288;2023-08-01T09:18:10;2.80;;;2.00;;
13475;SDS011;6810;63.824;20.288;2023-08-01T09:20:44;2.53;;;1.80;;
13475;SDS011;6810;63.824;20.288;2023-08-01T09:23:16;3.50;;;1.70;;
13475;SDS011;6810;63.824;20.288;2023-08-01T09:25:44;3.23;;;1.80;;
13475;SDS011;6810;63.824;20.288;2023-08-01T09:28:18;2.67;;;1.83;;
13475;SDS011;6810;63.824;20.288;2023-08-01T09:30:48;4.57;;;2.03;;
13475;SDS011;6810;63.824;20.288;2023-08-01T09:33:15;2.00;;;1.80;;
13475;SDS011;6810;63.824;20.288;2023-08-01T09:35:42;3.37;;;1.87;;
13475;SDS011;6810;63.824;20.288;2023-08-01T09:38:13;3.03;;;2.20;;
13475;SDS011;6810;63.824;20.288;2023-08-01T09:40:42;2.13;;;1.70;;
13475;SDS011;6810;63.824;20.288;2023-08-01T09:43:11;3.33;;;1.90;;
13475;SDS011;6810;63.824;20.288;2023-08-01T09:45:49;3.10;;;1.77;;
13475;SDS011;6810;63.824;20.288;2023-08-01T09:48:25;2.33;;;1.80;;
13475;SDS011;6810;63.824;20.288;2023-08-01T09:51:10;2.17;;;1.60;;
13475;SDS011;6810;63.824;20.288;2023-08-01T09:54:13;2.10;;;1.73;;
13475;SDS011;6810;63.824;20.288;2023-08-01T09:56:32;3.63;;;1.90;;
13475;SDS011;6810;63.824;20.288;2023-08-01T09:59:01;2.23;;;2.03;;
13475;SDS011;6810;63.824;20.288;2023-08-01T10:01:28;3.33;;;1.80;;
13475;SDS011;6810;63.824;20.288;2023-08-01T10:03:59;2.87;;;1.73;;
13475;SDS011;6810;63.824;20.288;2023-08-01T10:06:28;2.43;;;1.80;;
13475;SDS011;6810;63.824;20.288;2023-08-01T10:08:58;2.93;;;2.07;;
13475;SDS011;6810;63.824;20.288;2023-08-01T10:11:26;3.97;;;2.10;;
13475;SDS011;6810;63.824;20.288;2023-08-01T10:13:54;5.03;;;2.13;;
13475;SDS011;6810;63.824;20.288;2023-08-01T10:16:23;4.27;;;1.80;;
13475;SDS011;6810;63.824;20.288;2023-08-01T10:18:51;2.97;;;2.13;;
13475;SDS011;6810;63.824;20.288;2023-08-01T10:21:18;2.40;;;1.90;;
13475;SDS011;6810;63.824;20.288;2023-08-01T10:23:47;4.40;;;2.13;;
13475;SDS011;6810;63.824;20.288;2023-08-01T10:26:15;3.33;;;2.20;;
13475;SDS011;6810;63.824;20.288;2023-08-01T10:28:51;2.60;;;1.70;;
13475;SDS011;6810;63.824;20.288;2023-08-01T10:31:19;1.90;;;1.73;;
13475;SDS011;6810;63.824;20.288;2023-08-01T10:33:48;2.90;;;1.90;;
13475;SDS011;6810;63.824;20.288;2023-08-01T10:36:17;2.67;;;1.80;;
13475;SDS011;6810;63.824;20.288;2023-08-01T10:38:46;3.70;;;1.70;;
13475;SDS011;6810;63.824;20.288;2023-08-01T10:41:18;3.97;;;1.87;;
13475;SDS011;6810;63.824;20.288;2023-08-01T10:43:45;3.27;;;1.70;;
13475;SDS011;6810;63.824;20.288;2023-08-01T10:46:12;2.60;;;1.70;;
13475;SDS011;6810;63.824;20.288;2023-08-01T10:48:52;3.23;;;1.70;;
13475;SDS011;6810;63.824;20.288;2023-08-01T10:51:19;1.93;;;1.67;;
13475;SDS011;6810;63.824;20.288;2023-08-01T10:53:47;2.80;;;1.57;;
13475;SDS011;6810;63.824;20.288;2023-08-01T10:56:18;3.97;;;1.90;;
13475;SDS011;6810;63.824;20.288;2023-08-01T10:58:46;5.80;;;1.90;;
13475;SDS011;6810;63.824;20.288;2023-08-01T11:01:14;3.27;;;1.90;;
13475;SDS011;6810;63.824;20.288;2023-08-01T11:03:41;3.13;;;2.33;;
13475;SDS011;6810;63.824;20.288;2023-08-01T11:06:09;5.37;;;1.77;;
13475;SDS011;6810;63.824;20.288;2023-08-01T11:08:39;4.33;;;1.90;;
13475;SDS011;6810;63.824;20.288;2023-08-01T11:11:08;1.93;;;1.77;;
13475;SDS011;6810;63.824;20.288;2023-08-01T11:13:49;3.00;;;1.90;;
13475;SDS011;6810;63.824;20.288;2023-08-01T11:16:17;3.50;;;1.90;;
13475;SDS011;6810;63.824;20.288;2023-08-01T11:18:44;2.67;;;1.77;;
13475;SDS011;6810;63.824;20.288;2023-08-01T11:21:12;3.07;;;2.10;;
13475;SDS011;6810;63.824;20.288;2023-08-01T11:23:39;2.13;;;1.80;;
13475;SDS011;6810;63.824;20.288;2023-08-01T11:26:06;2.47;;;1.70;;
13475;SDS011;6810;63.824;20.288;2023-08-01T11:28:35;3.23;;;2.20;;
13475;SDS011;6810;63.824;20.288;2023-08-01T11:31:12;4.10;;;2.10;;
13475;SDS011;6810;63.824;20.288;2023-08-01T11:33:39;2.70;;;2.00;;
13475;SDS011;6810;63.824;20.288;2023-08-01T11:36:07;2.33;;;2.10;;
13475;SDS011;6810;63.824;20.288;2023-08-01T11:38:35;5.00;;;1.90;;
13475;SDS011;6810;63.824;20.288;2023-08-01T11:41:03;3.53;;;2.10;;
13475;SDS011;6810;63.824;20.288;2023-08-01T11:43:40;4.23;;;2.03;;
13475;SDS011;6810;63.824;20.288;2023-08-01T11:46:09;1.97;;;1.70;;
13475;SDS011;6810;63.824;20.288;2023-08-01T11:48:36;2.77;;;1.80;;
13475;SDS011;6810;63.824;20.288;2023-08-01T11:51:03;3.03;;;2.17;;
13475;SDS011;6810;63.824;20.288;2023-08-01T11:53:31;3.17;;;1.90;;
13475;SDS011;6810;63.824;20.288;2023-08-01T11:56:05;2.77;;;1.93;;
13475;SDS011;6810;63.824;20.288;2023-08-01T11:58:34;3.00;;;2.03;;
13475;SDS011;6810;63.824;20.288;2023-08-01T12:01:09;3.50;;;1.90;;
13475;SDS011;6810;63.824;20.288;2023-08-01T12:03:45;3.00;;;2.13;;
13475;SDS011;6810;63.824;20.288;2023-08-01T12:06:13;2.77;;;1.83;;
13475;SDS011;6810;63.824;20.288;2023-08-01T12:08:41;2.27;;;1.87;;
13475;SDS011;6810;63.824;20.288;2023-08-01T12:11:23;2.87;;;2.10;;
13475;SDS011;6810;63.824;20.288;2023-08-01T12:14:03;2.07;;;1.87;;
13475;SDS011;6810;63.824;20.288;2023-08-01T12:16:31;2.73;;;2.00;;
13475;SDS011;6810;63.824;20.288;2023-08-01T12:18:59;2.57;;;1.80;;
13475;SDS011;6810;63.824;20.288;2023-08-01T12:21:28;4.33;;;1.70;;
13475;SDS011;6810;63.824;20.288;2023-08-01T12:23:55;3.17;;;2.03;;
13475;SDS011;6810;63.824;20.288;2023-08-01T12:26:22;2.87;;;1.73;;
13475;SDS011;6810;63.824;20.288;2023-08-01T12:28:50;2.13;;;1.93;;
13475;SDS011;6810;63.824;20.288;2023-08-01T12:31:17;3.37;;;1.80;;
13475;SDS011;6810;63.824;20.288;2023-08-01T12:33:45;1.90;;;1.40;;
13475;SDS011;6810;63.824;20.288;2023-08-01T12:36:13;2.83;;;2.10;;
13475;SDS011;6810;63.824;20.288;2023-08-01T12:38:41;4.53;;;2.57;;
13475;SDS011;6810;63.824;20.288;2023-08-01T12:41:08;3.13;;;2.30;;
13475;SDS011;6810;63.824;20.288;2023-08-01T12:43:35;2.90;;;2.23;;
13475;SDS011;6810;63.824;20.288;2023-08-01T12:46:02;4.70;;;2.30;;
13475;SDS011;6810;63.824;20.288;2023-08-01T12:48:29;3.90;;;1.80;;
13475;SDS011;6810;63.824;20.288;2023-08-01T12:50:57;3.60;;;2.03;;
13475;SDS011;6810;63.824;20.288;2023-08-01T12:53:24;3.23;;;1.90;;
13475;SDS011;6810;63.824;20.288;2023-08-01T12:55:56;3.90;;;1.90;;
13475;SDS011;6810;63.824;20.288;2023-08-01T12:58:23;4.83;;;2.00;;
13475;SDS011;6810;63.824;20.288;2023-08-01T13:00:51;2.77;;;1.93;;
13475;SDS011;6810;63.824;20.288;2023-08-01T13:03:18;3.50;;;2.13;;
13475;SDS011;6810;63.824;20.288;2023-08-01T13:05:45;2.83;;;2.30;;
13475;SDS011;6810;63.824;20.288;2023-08-01T13:08:12;2.20;;;2.00;;
13475;SDS011;6810;63.824;20.288;2023-08-01T13:10:39;3.70;;;2.17;;
13475;SDS011;6810;63.824;20.288;2023-08-01T13:13:06;2.20;;;2.00;;
13475;SDS011;6810;63.824;20.288;2023-08-01T13:15:34;3.13;;;2.10;;
13475;SDS011;6810;63.824;20.288;2023-08-01T13:18:02;3.50;;;2.40;;
13475;SDS011;6810;63.824;20.288;2023-08-01T13:20:29;1.83;;;1.70;;
13475;SDS011;6810;63.824;20.288;2023-08-01T13:22:58;2.37;;;2.03;;
13475;SDS011;6810;63.824;20.288;2023-08-01T13:25:25;6.00;;;2.00;;
13475;SDS011;6810;63.824;20.288;2023-08-01T13:27:53;3.37;;;1.90;;
13475;SDS011;6810;63.824;20.288;2023-08-01T13:30:20;2.70;;;1.90;;
13475;SDS011;6810;63.824;20.288;2023-08-01T13:32:47;2.27;;;1.63;;
13475;SDS011;6810;63.824;20.288;2023-08-01T13:35:14;3.97;;;2.10;;
13475;SDS011;6810;63.824;20.288;2023-08-01T13:37:42;4.30;;;1.80;;
13475;SDS011;6810;63.824;20.288;2023-08-01T13:40:09;5.03;;;1.87;;
13475;SDS011;6810;63.824;20.288;2023-08-01T13:42:38;3.47;;;2.10;;
13475;SDS011;6810;63.824;20.288;2023-08-01T13:45:06;3.67;;;1.90;;
13475;SDS011;6810;63.824;20.288;2023-08-01T13:47:33;4.40;;;2.00;;
13475;SDS011;6810;63.824;20.288;2023-08-01T13:50:01;2.73;;;1.70;;
13475;SDS011;6810;63.824;20.288;2023-08-01T13:52:28;2.57;;;2.10;;
13475;SDS011;6810;63.824;20.288;2023-08-01T13:54:55;3.60;;;2.00;;
13475;SDS011;6810;63.824;20.288;2023-08-01T13:57:22;3.43;;;1.87;;
13475;SDS011;6810;63.824;20.288;2023-08-01T13:59:50;2.33;;;1.77;;
13475;SDS011;6810;63.824;20.288;2023-08-01T14:02:37;2.37;;;2.10;;
13475;SDS011;6810;63.824;20.288;2023-08-01T14:05:04;2.50;;;1.80;;
13475;SDS011;6810;63.824;20.288;2023-08-01T14:07:34;3.43;;;1.90;;
13475;SDS011;6810;63.824;20.288;2023-08-01T14:10:02;1.80;;;1.70;;
13475;SDS011;6810;63.824;20.288;2023-08-01T14:12:30;3.17;;;2.00;;
13475;SDS011;6810;63.824;20.288;2023-08-01T14:14:57;2.53;;;1.70;;
13475;SDS011;6810;63.824;20.288;2023-08-01T14:17:24;2.00;;;1.70;;
13475;SDS011;6810;63.824;20.288;2023-08-01T14:19:51;4.60;;;1.90;;
13475;SDS011;6810;63.824;20.288;2023-08-01T14:22:18;3.20;;;1.70;;
13475;SDS011;6810;63.824;20.288;2023-08-01T14:24:45;4.20;;;1.90;;
13475;SDS011;6810;63.824;20.288;2023-08-01T14:27:12;4.33;;;1.70;;
13475;SDS011;6810;63.824;20.288;2023-08-01T14:29:40;2.70;;;1.90;;
13475;SDS011;6810;63.824;20.288;2023-08-01T14:32:07;3.97;;;1.87;;
13475;SDS011;6810;63.824;20.288;2023-08-01T14:34:34;2.60;;;1.90;;
13475;SDS011;6810;63.824;20.288;2023-08-01T14:37:01;4.03;;;2.20;;
13475;SDS011;6810;63.824;20.288;2023-08-01T14:39:29;3.70;;;1.77;;
13475;SDS011;6810;63.824;20.288;2023-08-01T14:41:56;3.67;;;2.10;;
13475;SDS011;6810;63.824;20.288;2023-08-01T14:44:26;4.90;;;2.23;;
13475;SDS011;6810;63.824;20.288;2023-08-01T14:46:53;6.40;;;2.57;;
13475;SDS011;6810;63.824;20.288;2023-08-01T14:49:21;4.33;;;1.23;;
13475;SDS011;6810;63.824;20.288;2023-08-01T14:51:49;2.47;;;1.50;;
13475;SDS011;6810;63.824;20.288;2023-08-01T14:54:16;1.50;;;1.10;;
13475;SDS011;6810;63.824;20.288;2023-08-01T14:56:59;1.33;;;0.80;;
13475;SDS011;6810;63.824;20.288;2023-08-01T14:59:26;2.37;;;0.90;;
13475;SDS011;6810;63.824;20.288;2023-08-01T15:01:53;1.30;;;0.87;;
13475;SDS011;6810;63.824;20.288;2023-08-01T15:04:21;1.87;;;0.90;;
13475;SDS011;6810;63.824;20.288;2023-08-01T15:06:48;2.43;;;1.17;;
13475;SDS011;6810;63.824;20.288;2023-08-01T15:09:15;1.73;;;0.90;;
13475;SDS011;6810;63.824;20.288;2023-08-01T15:11:42;1.70;;;1.10;;
13475;SDS011;6810;63.824;20.288;2023-08-01T15:14:09;1.57;;;1.10;;
13475;SDS011;6810;63.824;20.288;2023-08-01T15:16:36;3.10;;;1.20;;
13475;SDS011;6810;63.824;20.288;2023-08-01T15:19:03;1.87;;;1.10;;
13475;SDS011;6810;63.824;20.288;2023-08-01T15:21:30;2.17;;;1.27;;
13475;SDS011;6810;63.824;20.288;2023-08-01T15:23:58;4.27;;;1.60;;
13475;SDS011;6810;63.824;20.288;2023-08-01T15:26:25;3.93;;;1.43;;
13475;SDS011;6810;63.824;20.288;2023-08-01T15:28:52;2.53;;;1.20;;
13475;SDS011;6810;63.824;20.288;2023-08-01T15:31:19;3.73;;;1.90;;
13475;SDS011;6810;63.824;20.288;2023-08-01T15:33:46;2.00;;;1.60;;
13475;SDS011;6810;63.824;20.288;2023-08-01T15:36:15;4.13;;;1.70;;
13475;SDS011;6810;63.824;20.288;2023-08-01T15:38:42;3.27;;;1.50;;